Time;durP1;ratioP1;P1;durP2;ratioP2;P2;SDS_P1;SDS_P2;PMS_P1;PMS_P2;Temp;Humidity;BMP_temperature;BMP_pressure;BME280_temperature;BME280_humidity;BME280_pressure;Samples;Min_cycle;Max_cycle;Signal;HPM_P1;HPM_P2
2022/04/03 00:01:45;;;;;;;0.20;0.20;;;;;;;19.01;36.51;101765.44;5141748;27;20449;-33
2022/04/03 00:04:11;;;;;;;0.20;0.20;;;;;;;19.02;36.41;101764.34;5121557;27;20138;-33
2022/04/03 00:06:36;;;;;;;0.20;0.20;;;;;;;19.03;36.57;101762.41;5142511;27;20050;-36
2022/04/03 00:09:03;;;;;;;0.20;0.20;;;;;;;19.03;36.30;101771.53;5125351;27;20038;-33
2022/04/03 00:11:29;;;;;;;0.20;0.20;;;;;;;19.03;36.56;101766.00;5110586;27;20481;-33
2022/04/03 00:13:56;;;;;;;0.20;0.20;;;;;;;19.02;36.71;101769.03;5142657;27;20076;-34
2022/04/03 00:16:21;;;;;;;0.20;0.20;;;;;;;19.02;36.50;101764.34;5119827;27;20143;-36
2022/04/03 00:18:48;;;;;;;0.20;0.20;;;;;;;19.03;36.37;101767.94;5120413;27;20533;-32
2022/04/03 00:21:14;;;;;;;0.20;0.20;;;;;;;19.03;36.42;101776.22;5138186;27;20172;-32
2022/04/03 00:23:40;;;;;;;0.20;0.20;;;;;;;19.02;36.39;101771.78;5142307;27;20049;-34
2022/04/03 00:26:06;;;;;;;0.30;0.30;;;;;;;19.03;36.41;101768.75;5138989;27;20092;-32
2022/04/03 00:28:31;;;;;;;0.20;0.20;;;;;;;19.02;36.56;101767.09;5139982;27;20091;-33
2022/04/03 00:30:57;;;;;;;0.20;0.20;;;;;;;19.02;36.58;101769.88;5144257;27;20043;-37
2022/04/03 00:33:23;;;;;;;0.20;0.20;;;;;;;19.02;36.42;101769.03;5123871;27;20046;-34
2022/04/03 00:35:50;;;;;;;0.20;0.20;;;;;;;19.03;36.59;101770.69;5137079;27;20493;-34
2022/04/03 00:38:16;;;;;;;0.20;0.20;;;;;;;19.02;36.63;101767.09;5137812;27;20131;-32
2022/04/03 00:40:45;;;;;;;0.20;0.20;;;;;;;19.02;36.30;101769.88;5144611;27;20040;-34
2022/04/03 00:43:11;;;;;;;0.20;0.20;;;;;;;19.02;36.28;101769.88;5138219;27;20071;-32
2022/04/03 00:45:38;;;;;;;0.20;0.20;;;;;;;19.03;36.58;101773.44;5126654;27;20468;-34
2022/04/03 00:48:04;;;;;;;0.28;0.28;;;;;;;19.02;36.66;101775.38;5141358;27;20130;-34
2022/04/03 00:50:30;;;;;;;0.20;0.20;;;;;;;19.02;36.30;101767.09;5118012;27;20123;-33
2022/04/03 00:52:56;;;;;;;0.20;0.20;;;;;;;19.02;36.72;101772.63;5140898;27;20043;-36
2022/04/03 00:55:22;;;;;;;0.20;0.20;;;;;;;19.02;36.70;101769.88;5139470;27;20074;-33
2022/04/03 00:57:48;;;;;;;0.20;0.20;;;;;;;19.03;36.62;101779.81;5136495;27;20039;-36
2022/04/03 01:00:14;;;;;;;0.20;0.20;;;;;;;19.03;36.44;101770.69;5139489;27;20505;-32
2022/04/03 01:02:40;;;;;;;0.20;0.20;;;;;;;19.01;36.15;101773.72;5118085;27;20049;-33
2022/04/03 01:05:07;;;;;;;0.20;0.20;;;;;;;19.02;36.42;101774.56;5138662;27;20126;-33
2022/04/03 01:07:33;;;;;;;0.20;0.20;;;;;;;19.02;36.50;101780.06;5139041;27;20130;-34
2022/04/03 01:09:59;;;;;;;0.20;0.20;;;;;;;19.02;36.36;101777.31;5145375;27;20042;-35
2022/04/03 01:12:25;;;;;;;0.20;0.20;;;;;;;19.02;36.55;101769.03;5121170;27;20511;-33
2022/04/03 01:15:14;;;;;;;0.20;0.20;;;;;;;19.02;36.34;101772.63;5121122;27;20046;-33
2022/04/03 01:17:39;;;;;;;0.20;0.20;;;;;;;19.03;36.61;101776.22;5137507;27;20155;-33
2022/04/03 01:20:06;;;;;;;0.20;0.20;;;;;;;19.02;36.63;101777.31;5144612;27;20062;-32
2022/04/03 01:22:32;;;;;;;0.20;0.20;;;;;;;19.02;36.41;101774.56;5135865;27;20135;-32
2022/04/03 01:24:58;;;;;;;0.20;0.20;;;;;;;19.02;36.47;101782.84;5122022;27;20078;-35
2022/04/03 01:27:24;;;;;;;0.20;0.20;;;;;;;19.02;36.45;101782.84;5118552;27;20051;-32
2022/04/03 01:29:52;;;;;;;0.20;0.20;;;;;;;19.02;36.22;101778.16;5102418;28;20050;-32
2022/04/03 01:32:18;;;;;;;0.20;0.20;;;;;;;19.02;36.50;101778.16;5141405;27;20512;-35
2022/04/03 01:34:43;;;;;;;0.20;0.20;;;;;;;19.01;36.50;101775.66;5139690;27;20470;-35
2022/04/03 01:37:09;;;;;;;0.20;0.20;;;;;;;19.01;36.25;101773.72;5126250;27;20089;-33
2022/04/03 01:39:35;;;;;;;0.20;0.20;;;;;;;19.02;36.22;101763.50;5140832;27;20039;-34
2022/04/03 01:42:01;;;;;;;0.20;0.20;;;;;;;19.01;36.29;101770.97;5143620;27;20558;-33
2022/04/03 01:44:28;;;;;;;0.20;0.20;;;;;;;19.02;36.32;101763.50;5146811;27;20078;-36
2022/04/03 01:46:53;;;;;;;0.20;0.20;;;;;;;19.01;36.28;101762.69;5121653;27;20130;-35
2022/04/03 01:49:19;;;;;;;0.30;0.30;;;;;;;19.01;36.42;101762.69;5142403;27;20047;-35
2022/04/03 01:51:45;;;;;;;0.30;0.30;;;;;;;19.01;36.55;101767.38;5151039;27;20049;-34
2022/04/03 01:54:10;;;;;;;0.25;0.25;;;;;;;19.02;36.29;101772.63;5143856;27;20079;-33
2022/04/03 01:56:36;;;;;;;0.30;0.30;;;;;;;19.01;36.14;101770.97;5145187;27;20046;-37
2022/04/03 01:59:03;;;;;;;0.20;0.20;;;;;;;19.00;36.35;101766.53;5141516;27;20035;-32
2022/04/03 02:01:30;;;;;;;0.20;0.20;;;;;;;19.01;36.20;101765.44;5119352;27;20601;-33
2022/04/03 02:03:56;;;;;;;0.20;0.20;;;;;;;19.02;36.41;101769.03;5125186;27;20083;-35
2022/04/03 02:06:22;;;;;;;0.20;0.20;;;;;;;19.01;36.40;101764.59;5145560;27;20745;-36
2022/04/03 02:08:47;;;;;;;0.20;0.20;;;;;;;19.00;36.59;101766.53;5144011;27;20746;-33
2022/04/03 02:11:15;;;;;;;0.20;0.20;;;;;;;19.01;36.36;101768.19;5137528;27;20043;-33
2022/04/03 02:13:40;;;;;;;0.20;0.20;;;;;;;19.00;36.25;101766.53;5141967;27;20089;-32
2022/04/03 02:16:06;;;;;;;0.20;0.20;;;;;;;19.01;36.24;101765.44;5135798;27;20486;-34
2022/04/03 02:18:32;;;;;;;0.20;0.20;;;;;;;19.01;36.55;101770.13;5138156;27;20047;-31
2022/04/03 02:20:57;;;;;;;0.20;0.20;;;;;;;19.02;36.41;101766.28;5138537;27;20305;-33
2022/04/03 02:23:23;;;;;;;0.20;0.20;;;;;;;19.01;36.39;101767.38;5147090;27;20054;-32
2022/04/03 02:25:50;;;;;;;0.20;0.20;;;;;;;19.00;36.56;101758.25;5144936;27;20533;-33
2022/04/03 02:28:16;;;;;;;0.20;0.20;;;;;;;19.01;36.26;101768.19;5142414;27;20478;-35
2022/04/03 02:30:43;;;;;;;0.20;0.20;;;;;;;19.00;36.29;101762.94;5135200;27;20047;-33
2022/04/03 02:33:08;;;;;;;0.20;0.20;;;;;;;19.01;36.55;101767.38;5141146;27;20043;-35
2022/04/03 02:35:34;;;;;;;0.20;0.20;;;;;;;19.01;36.32;101770.97;5145016;27;20043;-32
2022/04/03 02:38:00;;;;;;;0.20;0.20;;;;;;;19.01;36.30;101770.97;5140619;27;20070;-33
2022/04/03 02:40:26;;;;;;;0.20;0.20;;;;;;;19.00;36.40;101774.81;5143029;27;20103;-32
2022/04/03 02:42:52;;;;;;;0.20;0.20;;;;;;;19.01;36.48;101773.72;5145184;27;20054;-35
2022/04/03 02:45:18;;;;;;;0.20;0.20;;;;;;;19.01;36.23;101770.97;5144112;27;20052;-33
2022/04/03 02:47:48;;;;;;;0.20;0.20;;;;;;;19.01;36.29;101761.84;5140885;27;20116;-35
2022/04/03 02:50:16;;;;;;;0.20;0.20;;;;;;;19.01;36.31;101764.59;5136700;27;20139;-33
2022/04/03 02:52:42;;;;;;;0.20;0.20;;;;;;;19.00;36.46;101774.81;5123687;27;20141;-34
2022/04/03 02:55:08;;;;;;;0.20;0.20;;;;;;;19.01;36.47;101772.88;5144157;27;20390;-33
2022/04/03 02:57:33;;;;;;;0.20;0.20;;;;;;;19.00;36.25;101763.78;5142710;27;20043;-36
2022/04/03 02:59:59;;;;;;;0.20;0.20;;;;;;;19.00;36.47;101772.06;5144108;27;20053;-36
2022/04/03 03:02:24;;;;;;;0.20;0.20;;;;;;;19.01;36.31;101761.84;5138655;27;20043;-32
2022/04/03 03:04:50;;;;;;;0.20;0.20;;;;;;;19.00;36.42;101761.03;5142449;27;20211;-33
2022/04/03 03:07:16;;;;;;;0.20;0.20;;;;;;;19.01;36.28;101767.38;5143102;27;20038;-33
2022/04/03 03:09:42;;;;;;;0.20;0.20;;;;;;;19.00;36.40;101762.94;5146757;27;20042;-35
2022/04/03 03:12:08;;;;;;;0.20;0.20;;;;;;;19.00;36.34;101760.19;5142992;27;20047;-36
2022/04/03 03:14:33;;;;;;;0.20;0.20;;;;;;;19.01;36.37;101767.38;5123845;27;20047;-34
2022/04/03 03:17:01;;;;;;;0.20;0.20;;;;;;;18.99;36.37;101767.59;5142022;27;20098;-33
2022/04/03 03:19:26;;;;;;;0.20;0.20;;;;;;;19.00;36.49;101769.31;5145168;27;20120;-33
2022/04/03 03:21:52;;;;;;;0.20;0.20;;;;;;;18.99;36.50;101773.13;5145953;27;20050;-34
2022/04/03 03:24:18;;;;;;;0.20;0.20;;;;;;;19.00;36.49;101768.47;5146073;27;20039;-36
2022/04/03 03:26:44;;;;;;;0.25;0.25;;;;;;;18.99;36.44;101775.88;5136678;27;20042;-32
2022/04/03 03:29:09;;;;;;;0.20;0.20;;;;;;;19.00;36.46;101776.75;5138378;27;20043;-34
2022/04/03 03:31:35;;;;;;;0.20;0.20;;;;;;;19.00;36.40;101771.22;5145482;27;20389;-35
2022/04/03 03:34:01;;;;;;;0.20;0.20;;;;;;;18.99;36.32;101764.03;5137351;27;20045;-34
2022/04/03 03:36:26;;;;;;;0.20;0.20;;;;;;;18.99;36.21;101775.06;5144040;27;20382;-36
2022/04/03 03:38:52;;;;;;;0.20;0.20;;;;;;;18.99;36.43;101777.81;5139154;27;20055;-34
2022/04/03 03:41:18;;;;;;;0.20;0.20;;;;;;;19.00;36.38;101783.09;5139785;27;20042;-34
2022/04/03 03:43:43;;;;;;;0.20;0.20;;;;;;;19.00;36.35;101779.50;5122742;27;20043;-34
2022/04/03 03:46:09;;;;;;;0.20;0.20;;;;;;;18.99;36.30;101780.59;5141993;27;20054;-35
2022/04/03 03:48:35;;;;;;;0.20;0.20;;;;;;;19.01;36.17;101789.47;5118172;27;20069;-37
2022/04/03 03:51:01;;;;;;;0.20;0.20;;;;;;;19.00;36.41;101785.88;5142914;27;20513;-36
2022/04/03 03:53:27;;;;;;;0.20;0.20;;;;;;;18.98;36.35;101785.28;5125262;27;20039;-33
2022/04/03 03:55:52;;;;;;;0.20;0.20;;;;;;;18.99;35.93;101783.34;5123734;27;20186;-32
2022/04/03 03:58:18;;;;;;;0.20;0.20;;;;;;;19.00;36.24;101785.03;5141786;27;20087;-32
2022/04/03 04:00:45;;;;;;;0.20;0.20;;;;;;;18.99;36.33;101789.69;5122677;27;20616;-32
2022/04/03 04:03:11;;;;;;;0.20;0.20;;;;;;;18.99;36.41;101788.88;5122482;27;20043;-34
2022/04/03 04:05:37;;;;;;;0.20;0.20;;;;;;;19.00;36.51;101794.16;5137740;27;20047;-35
2022/04/03 04:08:04;;;;;;;0.20;0.20;;;;;;;18.99;36.33;101786.94;5145761;27;20078;-35
2022/04/03 04:10:29;;;;;;;0.20;0.20;;;;;;;19.00;36.34;101796.06;5136185;27;20130;-33
2022/04/03 04:12:55;;;;;;;0.20;0.20;;;;;;;18.99;36.29;101795.22;5140470;27;20039;-35
2022/04/03 04:15:21;;;;;;;0.20;0.20;;;;;;;19.00;36.39;101796.06;5139389;27;20126;-33
2022/04/03 04:17:47;;;;;;;0.20;0.20;;;;;;;18.98;36.31;101793.56;5140013;27;20088;-35
2022/04/03 04:20:16;;;;;;;0.20;0.20;;;;;;;18.99;36.34;101805.44;5137227;27;20265;-33
2022/04/03 04:22:43;;;;;;;0.20;0.20;;;;;;;18.98;36.39;101804.59;5122933;27;20423;-33
2022/04/03 04:25:09;;;;;;;0.20;0.20;;;;;;;18.98;36.39;101795.47;5139935;27;20498;-36
2022/04/03 04:27:35;;;;;;;0.20;0.20;;;;;;;18.98;36.44;101812.88;5120516;27;20566;-37
2022/04/03 04:30:02;;;;;;;0.20;0.20;;;;;;;18.99;35.84;101811.78;5138581;27;21117;-37
2022/04/03 04:32:27;;;;;;;0.20;0.20;;;;;;;18.99;36.64;101803.50;5140389;27;20353;-36
2022/04/03 04:34:53;;;;;;;0.20;0.20;;;;;;;18.99;36.31;101806.25;5137466;27;20042;-35
2022/04/03 04:37:19;;;;;;;0.20;0.20;;;;;;;18.99;36.41;101816.47;5140303;27;20035;-37
2022/04/03 04:39:45;;;;;;;0.20;0.20;;;;;;;18.99;36.34;101808.19;5119786;27;20075;-33
2022/04/03 04:42:12;;;;;;;0.20;0.20;;;;;;;18.98;36.34;101821.16;5120220;27;20087;-36
2022/04/03 04:44:38;;;;;;;0.20;0.20;;;;;;;18.99;36.44;101814.53;5136196;27;20066;-33
2022/04/03 04:47:04;;;;;;;0.20;0.20;;;;;;;18.98;36.36;101818.41;5138766;27;20043;-33
2022/04/03 04:49:29;;;;;;;0.20;0.20;;;;;;;18.98;36.26;101831.38;5142427;27;20070;-33
2022/04/03 04:51:55;;;;;;;0.25;0.25;;;;;;;18.98;36.24;101821.16;5144544;27;20099;-35
2022/04/03 04:54:21;;;;;;;0.20;0.20;;;;;;;18.99;36.31;101830.28;5140349;27;20049;-34
2022/04/03 04:56:46;;;;;;;0.20;0.20;;;;;;;18.99;35.95;101833.88;5140929;27;20578;-34
2022/04/03 04:59:12;;;;;;;0.20;0.20;;;;;;;18.98;36.26;101837.72;5138319;27;20735;-33
2022/04/03 05:01:38;;;;;;;0.20;0.20;;;;;;;18.98;36.47;101836.88;5143454;27;20049;-33
2022/04/03 05:04:04;;;;;;;0.20;0.20;;;;;;;18.98;36.38;101837.72;5122012;27;20058;-32
2022/04/03 05:06:31;;;;;;;0.20;0.20;;;;;;;18.97;36.37;101838.81;5143615;27;20095;-36
2022/04/03 05:08:57;;;;;;;0.20;0.20;;;;;;;18.98;36.42;101837.72;5139939;27;20129;-33
2022/04/03 05:11:23;;;;;;;0.20;0.20;;;;;;;18.98;36.12;101851.53;5144693;27;20061;-34
2022/04/03 05:13:49;;;;;;;0.20;0.20;;;;;;;18.98;36.43;101850.69;5144277;27;20092;-32
2022/04/03 05:16:14;;;;;;;0.20;0.20;;;;;;;18.98;36.12;101848.75;5139958;27;20483;-33
2022/04/03 05:18:40;;;;;;;0.28;0.28;;;;;;;18.98;36.29;101846.00;5141819;27;20047;-35
2022/04/03 05:21:07;;;;;;;0.20;0.20;;;;;;;18.98;36.38;101854.28;5143050;27;20042;-33
2022/04/03 05:23:33;;;;;;;0.20;0.20;;;;;;;18.98;36.21;101856.22;5106231;27;20403;-32
2022/04/03 05:25:59;;;;;;;0.20;0.20;;;;;;;18.97;36.29;101860.06;5138513;27;20042;-33
2022/04/03 05:28:26;;;;;;;0.20;0.20;;;;;;;18.98;36.26;101862.56;5129075;27;20075;-33
2022/04/03 05:30:52;;;;;;;0.20;0.20;;;;;;;18.98;36.51;101872.78;5105428;27;20038;-37
2022/04/03 05:33:18;;;;;;;0.20;0.20;;;;;;;18.98;36.17;101872.78;5118824;27;20097;-37
2022/04/03 05:35:44;;;;;;;0.20;0.20;;;;;;;18.99;36.29;101874.44;5120674;27;20421;-33
2022/04/03 05:38:09;;;;;;;0.30;0.30;;;;;;;18.98;36.15;101872.78;5138633;27;20053;-32
2022/04/03 05:40:35;;;;;;;0.20;0.20;;;;;;;18.98;36.31;101872.78;5136058;27;20481;-34
2022/04/03 05:43:01;;;;;;;0.20;0.20;;;;;;;18.97;36.25;101871.13;5139967;27;20038;-34
2022/04/03 05:45:27;;;;;;;0.20;0.20;;;;;;;18.98;36.26;101881.06;5138844;27;20068;-33
2022/04/03 05:47:53;;;;;;;0.20;0.20;;;;;;;18.98;36.35;101883.81;5124676;27;20142;-34
2022/04/03 05:50:19;;;;;;;0.30;0.30;;;;;;;18.98;36.08;101881.06;5133344;27;20130;-34
2022/04/03 05:52:47;;;;;;;0.20;0.20;;;;;;;18.97;36.25;101885.75;5137960;27;20054;-38
2022/04/03 05:55:15;;;;;;;0.20;0.20;;;;;;;18.97;36.35;101876.63;5117202;27;20462;-33
2022/04/03 05:57:41;;;;;;;0.20;0.20;;;;;;;18.97;36.05;101883.00;5140449;27;20919;-34
2022/04/03 06:00:12;;;;;;;0.20;0.20;;;;;;;18.97;36.42;101884.91;5118650;27;20080;-36
2022/04/03 06:02:48;;;;;;;0.20;0.20;;;;;;;18.97;36.18;101890.44;5115288;27;20458;-36
2022/04/03 06:05:16;;;;;;;0.20;0.20;;;;;;;18.97;36.17;101891.28;5146395;27;20846;-34
2022/04/03 06:07:41;;;;;;;0.17;0.17;;;;;;;18.97;36.36;101888.50;5121835;27;20074;-36
2022/04/03 06:10:07;;;;;;;0.20;0.20;;;;;;;18.97;36.14;101891.28;5138329;27;20198;-35
2022/04/03 06:12:33;;;;;;;0.20;0.20;;;;;;;18.97;36.50;101893.19;5140208;27;20450;-35
2022/04/03 06:14:58;;;;;;;0.20;0.20;;;;;;;18.98;36.22;101889.34;5138355;27;20051;-32
2022/04/03 06:17:24;;;;;;;0.20;0.20;;;;;;;18.95;36.17;101887.91;5140765;27;20053;-35
2022/04/03 06:19:50;;;;;;;0.20;0.20;;;;;;;18.96;36.22;101900.66;5133923;27;20035;-33
2022/04/03 06:22:16;;;;;;;0.20;0.20;;;;;;;18.97;36.35;101901.47;5137114;27;20043;-33
2022/04/03 06:24:41;;;;;;;0.20;0.20;;;;;;;18.97;35.97;101901.47;5138438;27;20047;-33
2022/04/03 06:27:07;;;;;;;0.20;0.20;;;;;;;18.97;36.29;101898.72;5135869;27;20042;-36
2022/04/03 06:29:33;;;;;;;0.20;0.20;;;;;;;18.97;36.19;101901.47;5144018;27;20051;-32
2022/04/03 06:31:58;;;;;;;0.20;0.20;;;;;;;18.97;36.07;101893.19;5138113;27;20142;-32
2022/04/03 06:34:24;;;;;;;0.20;0.20;;;;;;;18.97;36.24;101890.44;5146075;27;20051;-32
2022/04/03 06:36:50;;;;;;;0.25;0.25;;;;;;;18.95;36.35;101893.44;5106192;27;20089;-34
2022/04/03 06:39:16;;;;;;;0.20;0.20;;;;;;;18.97;36.34;101904.25;5122711;27;20043;-36
2022/04/03 06:41:42;;;;;;;0.20;0.20;;;;;;;18.95;36.45;101900.88;5141108;27;20043;-34
2022/04/03 06:44:07;;;;;;;0.20;0.20;;;;;;;18.96;36.02;101899.81;5143697;27;20456;-33
2022/04/03 06:46:34;;;;;;;0.30;0.30;;;;;;;18.97;36.29;101907.84;5145097;27;20042;-35
2022/04/03 06:49:00;;;;;;;0.20;0.20;;;;;;;18.95;36.28;101898.97;5140845;27;20138;-32
2022/04/03 06:51:26;;;;;;;0.20;0.20;;;;;;;18.95;36.38;101904.47;5141291;27;20093;-33
2022/04/03 06:53:52;;;;;;;0.20;0.20;;;;;;;18.95;36.15;101900.88;5123689;27;20164;-32
2022/04/03 06:56:19;;;;;;;0.20;0.20;;;;;;;18.96;36.44;101902.56;5141216;27;20071;-33
2022/04/03 06:58:45;;;;;;;0.20;0.20;;;;;;;18.96;36.41;101902.56;5124123;27;20332;-32
2022/04/03 07:01:10;;;;;;;0.30;0.30;;;;;;;18.95;36.32;101898.13;5119143;27;20034;-33
2022/04/03 07:03:36;;;;;;;0.20;0.20;;;;;;;18.95;36.42;101898.13;5138640;27;20062;-34
2022/04/03 07:06:02;;;;;;;0.30;0.30;;;;;;;18.96;36.52;101897.88;5144228;27;20046;-33
2022/04/03 07:08:28;;;;;;;0.20;0.20;;;;;;;18.95;36.26;101895.38;5142990;27;20461;-35
2022/04/03 07:10:55;;;;;;;0.30;0.30;;;;;;;18.95;36.24;101900.88;5144421;27;20061;-34
2022/04/03 07:13:20;;;;;;;0.20;0.20;;;;;;;18.95;36.28;101901.72;5125584;27;20468;-34
2022/04/03 07:15:48;;;;;;;0.25;0.25;;;;;;;18.95;36.09;101898.97;5144648;27;20057;-32
2022/04/03 07:18:16;;;;;;;0.20;0.20;;;;;;;18.95;36.12;101906.41;5123864;27;20042;-34
2022/04/03 07:20:46;;;;;;;0.20;0.20;;;;;;;18.95;36.21;101909.16;5138748;27;20043;-33
2022/04/03 07:23:12;;;;;;;0.20;0.20;;;;;;;18.94;36.16;101902.81;5140648;27;20085;-33
2022/04/03 07:25:38;;;;;;;0.20;0.20;;;;;;;18.94;36.56;101905.56;5120551;27;20066;-32
2022/04/03 07:28:04;;;;;;;0.30;0.30;;;;;;;18.95;36.21;101904.47;5144771;27;20492;-31
2022/04/03 07:30:29;;;;;;;0.20;0.20;;;;;;;18.94;36.45;101907.50;5137884;27;20035;-36
2022/04/03 07:32:55;;;;;;;0.20;0.20;;;;;;;18.94;36.15;101911.09;5141591;27;20058;-33
2022/04/03 07:35:21;;;;;;;0.20;0.20;;;;;;;18.94;36.13;101905.56;5137218;27;20054;-34
2022/04/03 07:37:46;;;;;;;0.20;0.20;;;;;;;18.94;36.16;101910.25;5142487;27;20042;-32
2022/04/03 07:40:13;;;;;;;0.22;0.22;;;;;;;18.94;36.11;101911.09;5135292;27;20438;-33
2022/04/03 07:42:40;;;;;;;0.20;0.20;;;;;;;18.94;36.30;101919.38;5143612;27;20478;-33
2022/04/03 07:45:06;;;;;;;0.20;0.20;;;;;;;18.94;36.29;101916.63;5138067;27;20047;-33
2022/04/03 07:47:32;;;;;;;0.20;0.20;;;;;;;18.95;36.16;101912.75;5148127;27;20077;-33
2022/04/03 07:49:59;;;;;;;0.20;0.20;;;;;;;18.94;36.16;101922.13;5135264;27;20043;-33
2022/04/03 07:52:24;;;;;;;0.20;0.20;;;;;;;18.94;36.44;101918.53;5142150;27;20043;-34
2022/04/03 07:54:50;;;;;;;0.22;0.22;;;;;;;18.93;36.20;101926.00;5141321;27;20053;-32
2022/04/03 07:57:18;;;;;;;0.30;0.30;;;;;;;18.94;36.20;101921.31;5121145;27;20043;-35
2022/04/03 07:59:44;;;;;;;;;;;;;;;18.95;36.37;101928.50;5120317;27;20070;-33
2022/04/03 08:02:10;;;;;;;0.20;0.20;;;;;;;18.93;36.14;101927.91;5143667;27;19927;-37
2022/04/03 08:04:35;;;;;;;0.30;0.30;;;;;;;18.94;36.37;101929.59;5141824;27;20043;-33
2022/04/03 08:07:01;;;;;;;0.20;0.20;;;;;;;18.93;36.22;101934.28;5143914;27;20068;-33
2022/04/03 08:09:27;;;;;;;0.20;0.20;;;;;;;18.95;36.23;101936.78;5140404;27;20066;-32
2022/04/03 08:11:52;;;;;;;0.20;0.20;;;;;;;18.93;36.08;101939.78;5137991;27;20062;-33
2022/04/03 08:14:18;;;;;;;0.20;0.20;;;;;;;18.93;36.26;101937.03;5141548;27;20095;-35
2022/04/03 08:16:44;;;;;;;0.20;0.20;;;;;;;18.94;36.07;101940.63;5138459;27;20043;-33
2022/04/03 08:19:09;;;;;;;0.20;0.20;;;;;;;18.93;36.33;101944.47;5140196;27;20175;-36
2022/04/03 08:21:35;;;;;;;0.20;0.20;;;;;;;18.93;36.37;101948.06;5144627;27;20430;-33
2022/04/03 08:24:01;;;;;;;0.25;0.25;;;;;;;18.93;36.43;101950.84;5142303;27;20053;-33
2022/04/03 08:26:27;;;;;;;0.20;0.20;;;;;;;18.94;36.19;101940.63;5140948;27;20054;-33
2022/04/03 08:28:53;;;;;;;0.20;0.20;;;;;;;18.94;36.25;101946.16;5140493;27;20053;-35
2022/04/03 08:31:20;;;;;;;0.20;0.20;;;;;;;18.93;36.18;101947.25;5136938;27;20176;-32
2022/04/03 08:33:47;;;;;;;0.20;0.20;;;;;;;18.92;36.21;101946.41;5142834;27;20047;-32
2022/04/03 08:36:14;;;;;;;0.20;0.20;;;;;;;18.94;36.36;101948.91;5138265;27;20078;-34
2022/04/03 08:38:40;;;;;;;0.20;0.20;;;;;;;18.94;36.44;101951.66;5121229;27;20196;-34
2022/04/03 08:41:06;;;;;;;0.20;0.20;;;;;;;18.93;36.05;101947.25;5138601;27;20046;-32
2022/04/03 08:43:32;;;;;;;0.20;0.20;;;;;;;18.92;36.37;101940.88;5144292;27;20065;-33
2022/04/03 08:45:58;;;;;;;0.20;0.20;;;;;;;18.93;36.07;101945.31;5140608;27;20196;-32
2022/04/03 08:48:26;;;;;;;0.20;0.20;;;;;;;18.93;36.11;101942.56;5116843;27;20066;-34
2022/04/03 08:50:54;;;;;;;0.20;0.20;;;;;;;18.93;36.19;101938.97;5117772;27;20495;-34
2022/04/03 08:53:22;;;;;;;0.20;0.20;;;;;;;18.93;36.24;101941.72;5136220;27;20081;-34
2022/04/03 08:55:48;;;;;;;;;;;;;;;18.92;36.12;101937.31;5145273;27;20073;-33
2022/04/03 08:58:13;;;;;;;0.20;0.20;;;;;;;18.92;36.23;101946.41;5142462;27;19923;-34
2022/04/03 09:00:39;;;;;;;0.20;0.20;;;;;;;18.91;36.21;101947.50;5151086;27;20063;-32
2022/04/03 09:03:12;;;;;;;0.28;0.28;;;;;;;18.92;36.08;101951.94;5138904;27;20434;-35
2022/04/03 09:05:39;;;;;;;0.25;0.25;;;;;;;18.92;36.16;101946.41;5144027;27;20053;-37
2022/04/03 09:08:06;;;;;;;0.30;0.30;;;;;;;18.92;36.27;101946.41;5136092;27;20050;-32
2022/04/03 09:10:33;;;;;;;0.20;0.20;;;;;;;18.92;36.11;101945.59;5142474;27;20062;-33
2022/04/03 09:12:59;;;;;;;0.20;0.20;;;;;;;18.92;36.17;101951.94;5146599;27;20070;-33
2022/04/03 09:15:25;;;;;;;0.20;0.20;;;;;;;18.93;36.18;101953.59;5141408;27;20062;-35
2022/04/03 09:17:53;;;;;;;0.20;0.20;;;;;;;18.93;36.05;101944.47;5104984;27;20077;-36
2022/04/03 09:20:25;;;;;;;0.20;0.20;;;;;;;18.92;36.25;101953.88;5134482;27;20086;-34
2022/04/03 09:22:53;;;;;;;0.25;0.25;;;;;;;18.93;36.37;101950.00;5142377;27;20074;-35
2022/04/03 09:25:39;;;;;;;0.30;0.30;;;;;;;18.92;36.11;101945.59;5146125;27;20118;-35
2022/04/03 09:28:08;;;;;;;0.20;0.20;;;;;;;18.93;36.24;101952.75;5126847;27;20419;-33
2022/04/03 09:30:38;;;;;;;0.20;0.20;;;;;;;18.92;36.17;101949.19;5136473;27;20079;-33
2022/04/03 09:33:06;;;;;;;0.20;0.20;;;;;;;18.93;36.43;101958.28;5119484;27;20101;-33
2022/04/03 09:35:52;;;;;;;0.20;0.20;;;;;;;18.92;36.13;101956.63;5120884;27;20142;-30
2022/04/03 09:38:18;;;;;;;0.30;0.30;;;;;;;18.92;36.22;101949.19;5123876;27;20541;-33
2022/04/03 09:40:47;;;;;;;0.20;0.20;;;;;;;18.91;36.05;101953.03;5115985;27;20051;-33
2022/04/03 09:43:15;;;;;;;0.20;0.20;;;;;;;18.90;36.48;101956.84;5116107;27;20082;-35
2022/04/03 09:45:47;;;;;;;0.20;0.20;;;;;;;18.92;36.18;101964.91;5123109;27;20387;-34
2022/04/03 09:48:29;;;;;;;0.20;0.20;;;;;;;18.91;36.26;101957.69;5132582;27;20129;-33
2022/04/03 09:51:21;;;;;;;0.28;0.28;;;;;;;18.93;36.16;101947.25;5107618;27;20087;-33
2022/04/03 09:54:00;;;;;;;0.20;0.20;;;;;;;18.91;36.43;101963.22;5126290;27;20122;-36
2022/04/03 09:56:31;;;;;;;0.20;0.20;;;;;;;18.90;36.35;101956.84;5107004;27;20276;-33
2022/04/03 09:58:58;;;;;;;0.20;0.20;;;;;;;18.91;36.37;101954.94;5123180;27;20405;-33
2022/04/03 10:01:27;;;;;;;0.20;0.20;;;;;;;18.92;36.15;101956.63;5120050;27;20127;-34
2022/04/03 10:03:53;;;;;;;0.20;0.20;;;;;;;18.92;36.43;101949.19;5123390;27;20252;-32
2022/04/03 10:06:20;;;;;;;0.20;0.20;;;;;;;18.91;36.20;101947.50;5108573;27;20073;-34
2022/04/03 10:08:47;;;;;;;0.30;0.30;;;;;;;18.91;36.51;101943.88;5123632;27;20074;-32
2022/04/03 10:11:14;;;;;;;0.20;0.20;;;;;;;18.91;36.18;101943.88;5142258;27;20440;-36
2022/04/03 10:13:39;;;;;;;0.20;0.20;;;;;;;18.90;36.22;101943.06;5124282;27;20478;-34
2022/04/03 10:16:05;;;;;;;0.20;0.20;;;;;;;18.93;36.27;101947.25;5143446;27;20063;-33
2022/04/03 10:18:33;;;;;;;0.20;0.20;;;;;;;18.92;36.42;101948.34;5143508;27;20122;-36
2022/04/03 10:20:59;;;;;;;0.20;0.20;;;;;;;18.91;36.39;101939.22;5138144;27;20682;-34
2022/04/03 10:23:26;;;;;;;0.20;0.20;;;;;;;18.90;36.36;101932.00;5117430;27;20078;-34
2022/04/03 10:25:52;;;;;;;0.20;0.20;;;;;;;18.90;36.41;101937.53;5139611;27;20073;-34
2022/04/03 10:28:20;;;;;;;0.20;0.20;;;;;;;18.92;36.55;101937.31;5122683;27;20137;-33
2022/04/03 10:30:58;;;;;;;0.20;0.20;;;;;;;18.90;36.05;101940.28;5142971;27;20038;-32
2022/04/03 10:33:24;;;;;;;0.20;0.20;;;;;;;18.90;36.24;101929.25;5124312;27;20319;-34
2022/04/03 10:36:04;;;;;;;0.20;0.20;;;;;;;18.91;36.28;101935.59;5141837;27;20039;-35
2022/04/03 10:38:39;;;;;;;0.20;0.20;;;;;;;18.90;36.31;101940.28;5139856;27;20079;-32
2022/04/03 10:41:06;;;;;;;0.20;0.20;;;;;;;18.90;36.03;101933.94;5125095;27;20581;-34
2022/04/03 10:43:36;;;;;;;0.20;0.20;;;;;;;18.90;36.27;101928.41;5128247;27;20495;-34
2022/04/03 10:46:02;;;;;;;0.20;0.20;;;;;;;18.90;36.39;101926.50;5128323;27;20520;-35
2022/04/03 10:48:30;;;;;;;0.20;0.20;;;;;;;18.91;36.19;101927.31;5139200;27;20049;-32
2022/04/03 10:50:59;;;;;;;0.20;0.20;;;;;;;18.91;36.14;101933.72;5126619;27;20066;-36
2022/04/03 10:53:27;;;;;;;0.30;0.30;;;;;;;18.90;36.40;101920.13;5123053;27;20081;-33
2022/04/03 10:55:55;;;;;;;0.20;0.20;;;;;;;18.91;36.30;101924.56;5127243;27;20126;-34
2022/04/03 10:58:21;;;;;;;;;;;;;;;18.90;36.24;101918.22;5109561;27;20075;-34
2022/04/03 11:00:49;;;;;;;0.20;0.20;;;;;;;18.90;36.23;101911.88;5120699;27;20404;-33
2022/04/03 11:06:17;;;;;;;0.30;0.30;;;;;;;18.90;36.52;101903.59;5165464;27;20149;-27
2022/04/03 11:08:45;;;;;;;0.20;0.20;;;;;;;18.89;36.27;101894.47;5131415;27;20082;-27
2022/04/03 11:11:11;;;;;;;0.20;0.20;;;;;;;18.90;36.20;101895.31;5149178;27;20523;-27
2022/04/03 11:13:38;;;;;;;0.20;0.20;;;;;;;18.90;36.35;101892.53;5150394;27;20074;-27
2022/04/03 11:16:08;;;;;;;0.20;0.20;;;;;;;18.90;36.28;101884.25;5150260;27;20070;-26
2022/04/03 11:18:37;;;;;;;0.28;0.28;;;;;;;18.91;36.38;101885.91;5156689;27;20475;-26
2022/04/03 11:23:50;;;;;;;0.30;0.30;;;;;;;18.90;36.28;101884.25;5175660;27;20128;-30
2022/04/03 11:26:17;;;;;;;0.20;0.20;;;;;;;18.89;36.20;101880.66;5167001;27;20477;-30
2022/04/03 11:28:44;;;;;;;0.20;0.20;;;;;;;18.89;36.16;101871.56;5165864;27;20073;-32
2022/04/03 11:31:10;;;;;;;0.30;0.30;;;;;;;18.89;36.11;101875.16;5129569;27;20453;-33